sensor_id;sensor_type;location;lat;lon;timestamp;pressure;altitude;pressure_sealevel;temperature;humidity
82416;BME280;72058;47.782;10.618;2023-11-21T00:01:37;92939.03;;;7.73;68.01
82416;BME280;72058;47.782;10.618;2023-11-21T00:04:03;92940.00;;;7.77;67.36
82416;BME280;72058;47.782;10.618;2023-11-21T00:06:28;92929.66;;;7.87;66.68
82416;BME280;72058;47.782;10.618;2023-11-21T00:08:55;92938.59;;;7.96;66.50
82416;BME280;72058;47.782;10.618;2023-11-21T00:11:21;92919.16;;;7.94;66.52
82416;BME280;72058;47.782;10.618;2023-11-21T00:13:46;92919.44;;;7.76;66.83
82416;BME280;72058;47.782;10.618;2023-11-21T00:16:11;92919.28;;;7.81;67.18
82416;BME280;72058;47.782;10.618;2023-11-21T00:18:37;92924.22;;;7.87;66.27
82416;BME280;72058;47.782;10.618;2023-11-21T00:21:02;92915.97;;;7.92;65.90
82416;BME280;72058;47.782;10.618;2023-11-21T00:23:28;92906.25;;;7.91;65.65
82416;BME280;72058;47.782;10.618;2023-11-21T00:25:54;92904.50;;;7.95;65.42
82416;BME280;72058;47.782;10.618;2023-11-21T00:28:19;92900.66;;;7.96;65.29
82416;BME280;72058;47.782;10.618;2023-11-21T00:30:45;92901.31;;;7.93;65.10
82416;BME280;72058;47.782;10.618;2023-11-21T00:33:10;92908.16;;;7.91;65.77
82416;BME280;72058;47.782;10.618;2023-11-21T00:35:36;92908.47;;;7.89;65.27
82416;BME280;72058;47.782;10.618;2023-11-21T00:38:01;92907.06;;;7.92;65.03
82416;BME280;72058;47.782;10.618;2023-11-21T00:40:28;92897.97;;;7.96;64.82
82416;BME280;72058;47.782;10.618;2023-11-21T00:42:53;92899.72;;;7.92;64.83
82416;BME280;72058;47.782;10.618;2023-11-21T00:45:19;92910.38;;;7.89;64.99
82416;BME280;72058;47.782;10.618;2023-11-21T00:47:44;92913.25;;;7.92;64.86
82416;BME280;72058;47.782;10.618;2023-11-21T00:50:09;92912.75;;;7.82;65.52
82416;BME280;72058;47.782;10.618;2023-11-21T00:52:35;92909.13;;;7.78;65.43
82416;BME280;72058;47.782;10.618;2023-11-21T00:55:01;92919.63;;;7.88;65.26
82416;BME280;72058;47.782;10.618;2023-11-21T00:57:28;92915.31;;;7.78;65.61
82416;BME280;72058;47.782;10.618;2023-11-21T00:59:53;92911.66;;;7.83;65.41
82416;BME280;72058;47.782;10.618;2023-11-21T01:02:18;92913.06;;;7.80;65.21
82416;BME280;72058;47.782;10.618;2023-11-21T01:04:44;92910.38;;;7.80;65.32
82416;BME280;72058;47.782;10.618;2023-11-21T01:07:09;92909.75;;;7.83;65.30
82416;BME280;72058;47.782;10.618;2023-11-21T01:09:34;92911.66;;;7.83;65.58
82416;BME280;72058;47.782;10.618;2023-11-21T01:12:00;92911.16;;;7.81;65.58
82416;BME280;72058;47.782;10.618;2023-11-21T01:14:26;92909.28;;;7.90;65.37
82416;BME280;72058;47.782;10.618;2023-11-21T01:16:52;92903.84;;;7.81;65.57
82416;BME280;72058;47.782;10.618;2023-11-21T01:19:18;92916.09;;;7.87;65.44
82416;BME280;72058;47.782;10.618;2023-11-21T01:21:43;92911.66;;;7.83;65.60
82416;BME280;72058;47.782;10.618;2023-11-21T01:24:08;92913.25;;;7.84;65.41
82416;BME280;72058;47.782;10.618;2023-11-21T01:26:34;92908.78;;;7.88;65.10
82416;BME280;72058;47.782;10.618;2023-11-21T01:28:59;92904.34;;;7.92;65.46
82416;BME280;72058;47.782;10.618;2023-11-21T01:31:25;92900.19;;;7.86;65.37
82416;BME280;72058;47.782;10.618;2023-11-21T01:33:54;92907.66;;;7.89;65.46
82416;BME280;72058;47.782;10.618;2023-11-21T01:36:20;92908.00;;;7.96;65.48
82416;BME280;72058;47.782;10.618;2023-11-21T01:38:46;92908.47;;;7.98;65.56
82416;BME280;72058;47.782;10.618;2023-11-21T01:41:13;92903.88;;;7.98;65.30
82416;BME280;72058;47.782;10.618;2023-11-21T01:43:39;92914.19;;;7.88;65.73
82416;BME280;72058;47.782;10.618;2023-11-21T01:46:05;92903.84;;;7.90;66.02
82416;BME280;72058;47.782;10.618;2023-11-21T01:48:31;92907.19;;;7.95;65.75
82416;BME280;72058;47.782;10.618;2023-11-21T01:50:57;92906.88;;;7.97;65.75
82416;BME280;72058;47.782;10.618;2023-11-21T01:53:24;92909.91;;;8.04;65.62
82416;BME280;72058;47.782;10.618;2023-11-21T01:55:51;92912.00;;;8.16;65.37
82416;BME280;72058;47.782;10.618;2023-11-21T01:58:16;92909.59;;;8.23;65.40
82416;BME280;72058;47.782;10.618;2023-11-21T02:00:42;92906.75;;;8.28;65.14
82416;BME280;72058;47.782;10.618;2023-11-21T02:03:08;92908.31;;;8.29;65.40
82416;BME280;72058;47.782;10.618;2023-11-21T02:05:35;92907.56;;;8.28;65.34
82416;BME280;72058;47.782;10.618;2023-11-21T02:08:01;92907.41;;;8.33;65.62
82416;BME280;72058;47.782;10.618;2023-11-21T02:10:27;92908.19;;;8.25;66.15
82416;BME280;72058;47.782;10.618;2023-11-21T02:12:54;92897.66;;;8.24;66.41
82416;BME280;72058;47.782;10.618;2023-11-21T02:15:21;92898.78;;;8.23;66.37
82416;BME280;72058;47.782;10.618;2023-11-21T02:17:48;92898.47;;;8.16;66.33
82416;BME280;72058;47.782;10.618;2023-11-21T02:20:17;92900.06;;;8.17;66.62
82416;BME280;72058;47.782;10.618;2023-11-21T02:22:52;92899.44;;;8.11;66.97
82416;BME280;72058;47.782;10.618;2023-11-21T02:25:26;92897.97;;;8.14;67.23
82416;BME280;72058;47.782;10.618;2023-11-21T02:27:55;92888.59;;;8.11;67.06
82416;BME280;72058;47.782;10.618;2023-11-21T02:30:21;92890.16;;;7.86;68.23
82416;BME280;72058;47.782;10.618;2023-11-21T02:32:48;92878.69;;;7.89;68.31
82416;BME280;72058;47.782;10.618;2023-11-21T02:35:13;92881.56;;;7.84;68.35
82416;BME280;72058;47.782;10.618;2023-11-21T02:37:38;92878.19;;;7.70;68.75
82416;BME280;72058;47.782;10.618;2023-11-21T02:40:04;92879.75;;;7.62;69.58
82416;BME280;72058;47.782;10.618;2023-11-21T02:42:34;92875.34;;;7.84;68.39
82416;BME280;72058;47.782;10.618;2023-11-21T02:45:00;92876.63;;;7.95;68.03
82416;BME280;72058;47.782;10.618;2023-11-21T02:47:25;92878.06;;;7.92;67.92
82416;BME280;72058;47.782;10.618;2023-11-21T02:49:50;92885.34;;;7.66;69.37
82416;BME280;72058;47.782;10.618;2023-11-21T02:52:17;92882.81;;;7.61;69.26
82416;BME280;72058;47.782;10.618;2023-11-21T02:54:42;92887.56;;;7.64;69.54
82416;BME280;72058;47.782;10.618;2023-11-21T02:57:08;92886.31;;;7.70;68.87
82416;BME280;72058;47.782;10.618;2023-11-21T02:59:33;92882.03;;;7.69;68.32
82416;BME280;72058;47.782;10.618;2023-11-21T03:02:00;92876.13;;;7.67;69.49
82416;BME280;72058;47.782;10.618;2023-11-21T03:04:25;92880.41;;;7.59;69.17
82416;BME280;72058;47.782;10.618;2023-11-21T03:06:51;92873.25;;;7.63;69.22
82416;BME280;72058;47.782;10.618;2023-11-21T03:09:16;92879.31;;;7.69;68.88
82416;BME280;72058;47.782;10.618;2023-11-21T03:11:42;92877.88;;;7.72;68.79
82416;BME280;72058;47.782;10.618;2023-11-21T03:14:07;92878.53;;;7.86;68.28
82416;BME280;72058;47.782;10.618;2023-11-21T03:16:33;92888.59;;;8.03;67.45
82416;BME280;72058;47.782;10.618;2023-11-21T03:18:58;92886.34;;;8.05;67.10
82416;BME280;72058;47.782;10.618;2023-11-21T03:21:24;92888.09;;;8.09;66.46
82416;BME280;72058;47.782;10.618;2023-11-21T03:23:50;92887.13;;;8.14;66.55
82416;BME280;72058;47.782;10.618;2023-11-21T03:26:15;92885.22;;;8.14;66.86
82416;BME280;72058;47.782;10.618;2023-11-21T03:28:41;92880.13;;;8.21;66.49
82416;BME280;72058;47.782;10.618;2023-11-21T03:31:07;92888.91;;;8.27;66.11
82416;BME280;72058;47.782;10.618;2023-11-21T03:33:34;92897.66;;;8.24;66.59
82416;BME280;72058;47.782;10.618;2023-11-21T03:36:00;92895.91;;;8.28;66.34
82416;BME280;72058;47.782;10.618;2023-11-21T03:38:26;92901.16;;;8.24;66.67
82416;BME280;72058;47.782;10.618;2023-11-21T03:40:51;92900.38;;;8.24;66.86
82416;BME280;72058;47.782;10.618;2023-11-21T03:43:16;92903.88;;;8.16;67.90
82416;BME280;72058;47.782;10.618;2023-11-21T03:45:41;92903.56;;;8.09;68.15
82416;BME280;72058;47.782;10.618;2023-11-21T03:48:07;92899.88;;;7.96;69.28
82416;BME280;72058;47.782;10.618;2023-11-21T03:50:36;92898.94;;;7.92;69.14
82416;BME280;72058;47.782;10.618;2023-11-21T03:53:02;92889.50;;;7.72;70.08
82416;BME280;72058;47.782;10.618;2023-11-21T03:55:27;92894.91;;;7.72;70.50
82416;BME280;72058;47.782;10.618;2023-11-21T03:57:52;92900.78;;;7.66;70.55
82416;BME280;72058;47.782;10.618;2023-11-21T04:00:18;92901.59;;;7.75;71.02
82416;BME280;72058;47.782;10.618;2023-11-21T04:02:45;92902.53;;;7.70;70.57
82416;BME280;72058;47.782;10.618;2023-11-21T04:05:11;92904.31;;;7.75;70.50
82416;BME280;72058;47.782;10.618;2023-11-21T04:07:37;92897.13;;;7.79;69.62
82416;BME280;72058;47.782;10.618;2023-11-21T04:10:07;92891.28;;;7.77;69.52
82416;BME280;72058;47.782;10.618;2023-11-21T04:12:34;92900.66;;;7.79;69.18
82416;BME280;72058;47.782;10.618;2023-11-21T04:15:00;92892.06;;;7.77;69.30
82416;BME280;72058;47.782;10.618;2023-11-21T04:17:25;92898.75;;;7.80;69.47
82416;BME280;72058;47.782;10.618;2023-11-21T04:19:50;92891.09;;;7.73;69.63
82416;BME280;72058;47.782;10.618;2023-11-21T04:22:16;92889.50;;;7.72;69.92
82416;BME280;72058;47.782;10.618;2023-11-21T04:24:41;92897.13;;;7.70;69.89
82416;BME280;72058;47.782;10.618;2023-11-21T04:27:06;92894.41;;;7.53;70.58
82416;BME280;72058;47.782;10.618;2023-11-21T04:29:32;92899.00;;;7.44;71.38
82416;BME280;72058;47.782;10.618;2023-11-21T04:31:57;92897.88;;;7.45;71.66
82416;BME280;72058;47.782;10.618;2023-11-21T04:34:22;92894.22;;;7.49;71.70
82416;BME280;72058;47.782;10.618;2023-11-21T04:36:49;92895.00;;;7.41;72.47
82416;BME280;72058;47.782;10.618;2023-11-21T04:39:15;92892.63;;;7.40;72.51
82416;BME280;72058;47.782;10.618;2023-11-21T04:41:40;92896.38;;;7.21;73.78
82416;BME280;72058;47.782;10.618;2023-11-21T04:44:06;92901.44;;;7.14;74.06
82416;BME280;72058;47.782;10.618;2023-11-21T04:46:31;92901.78;;;7.21;73.95
82416;BME280;72058;47.782;10.618;2023-11-21T04:48:57;92903.84;;;7.16;73.91
82416;BME280;72058;47.782;10.618;2023-11-21T04:51:23;92898.63;;;7.19;74.44
82416;BME280;72058;47.782;10.618;2023-11-21T04:53:48;92904.66;;;7.25;74.51
82416;BME280;72058;47.782;10.618;2023-11-21T04:56:14;92896.41;;;7.30;74.07
82416;BME280;72058;47.782;10.618;2023-11-21T04:58:39;92907.25;;;7.39;73.23
82416;BME280;72058;47.782;10.618;2023-11-21T05:01:06;92904.38;;;7.35;73.40
82416;BME280;72058;47.782;10.618;2023-11-21T05:03:32;92903.44;;;7.40;73.34
82416;BME280;72058;47.782;10.618;2023-11-21T05:05:57;92901.53;;;7.40;73.50
82416;BME280;72058;47.782;10.618;2023-11-21T05:08:22;92896.09;;;7.32;74.06
82416;BME280;72058;47.782;10.618;2023-11-21T05:10:48;92902.25;;;7.15;75.30
82416;BME280;72058;47.782;10.618;2023-11-21T05:13:14;92908.44;;;7.15;75.57
82416;BME280;72058;47.782;10.618;2023-11-21T05:15:43;92916.25;;;7.17;75.67
82416;BME280;72058;47.782;10.618;2023-11-21T05:18:09;92915.13;;;7.09;75.50
82416;BME280;72058;47.782;10.618;2023-11-21T05:20:35;92916.09;;;7.22;75.30
82416;BME280;72058;47.782;10.618;2023-11-21T05:23:01;92913.06;;;7.15;75.76
82416;BME280;72058;47.782;10.618;2023-11-21T05:25:26;92910.66;;;7.13;76.32
82416;BME280;72058;47.782;10.618;2023-11-21T05:27:52;92904.97;;;7.23;75.70
82416;BME280;72058;47.782;10.618;2023-11-21T05:30:18;92915.78;;;7.23;75.61
82416;BME280;72058;47.782;10.618;2023-11-21T05:32:43;92907.19;;;7.21;75.71
82416;BME280;72058;47.782;10.618;2023-11-21T05:35:10;92918.75;;;7.44;75.47
82416;BME280;72058;47.782;10.618;2023-11-21T05:37:40;92916.59;;;7.24;76.23
82416;BME280;72058;47.782;10.618;2023-11-21T05:40:06;92923.25;;;7.18;76.52
82416;BME280;72058;47.782;10.618;2023-11-21T05:42:33;92922.59;;;7.12;76.33
82416;BME280;72058;47.782;10.618;2023-11-21T05:44:58;92926.38;;;7.03;76.47
82416;BME280;72058;47.782;10.618;2023-11-21T05:47:24;92922.50;;;6.95;76.13
82416;BME280;72058;47.782;10.618;2023-11-21T05:49:51;92920.59;;;6.96;75.28
82416;BME280;72058;47.782;10.618;2023-11-21T05:52:17;92927.00;;;7.00;74.76
82416;BME280;72058;47.782;10.618;2023-11-21T05:54:43;92929.03;;;6.94;74.71
82416;BME280;72058;47.782;10.618;2023-11-21T05:57:08;92935.59;;;7.02;74.55
82416;BME280;72058;47.782;10.618;2023-11-21T05:59:34;92931.25;;;6.92;74.77
82416;BME280;72058;47.782;10.618;2023-11-21T06:01:59;92942.88;;;6.93;75.08
82416;BME280;72058;47.782;10.618;2023-11-21T06:04:24;92934.88;;;6.88;75.36
82416;BME280;72058;47.782;10.618;2023-11-21T06:06:51;92940.13;;;6.84;75.67
82416;BME280;72058;47.782;10.618;2023-11-21T06:09:18;92937.75;;;6.91;75.14
82416;BME280;72058;47.782;10.618;2023-11-21T06:11:43;92942.38;;;6.91;74.93
82416;BME280;72058;47.782;10.618;2023-11-21T06:14:08;92943.91;;;6.83;75.20
82416;BME280;72058;47.782;10.618;2023-11-21T06:16:34;92934.66;;;6.75;75.30
82416;BME280;72058;47.782;10.618;2023-11-21T06:19:00;92938.59;;;6.69;75.17
82416;BME280;72058;47.782;10.618;2023-11-21T06:21:26;92942.31;;;6.82;75.00
82416;BME280;72058;47.782;10.618;2023-11-21T06:23:51;92944.59;;;6.89;74.75
82416;BME280;72058;47.782;10.618;2023-11-21T06:26:18;92939.81;;;6.85;74.69
82416;BME280;72058;47.782;10.618;2023-11-21T06:28:43;92950.28;;;6.87;74.75
82416;BME280;72058;47.782;10.618;2023-11-21T06:31:09;92954.25;;;6.81;74.72
82416;BME280;72058;47.782;10.618;2023-11-21T06:33:36;92953.94;;;6.82;73.86
82416;BME280;72058;47.782;10.618;2023-11-21T06:36:01;92955.09;;;6.90;74.49
82416;BME280;72058;47.782;10.618;2023-11-21T06:38:28;92957.09;;;6.76;75.23
82416;BME280;72058;47.782;10.618;2023-11-21T06:40:57;92964.03;;;6.68;75.01
82416;BME280;72058;47.782;10.618;2023-11-21T06:43:23;92969.59;;;6.72;75.31
82416;BME280;72058;47.782;10.618;2023-11-21T06:45:48;92964.56;;;6.79;74.88
82416;BME280;72058;47.782;10.618;2023-11-21T06:48:14;92961.84;;;6.79;74.77
82416;BME280;72058;47.782;10.618;2023-11-21T06:50:40;92978.06;;;6.79;74.56
82416;BME280;72058;47.782;10.618;2023-11-21T06:53:05;92970.03;;;6.65;75.34
82416;BME280;72058;47.782;10.618;2023-11-21T06:55:32;92971.16;;;6.64;75.33
82416;BME280;72058;47.782;10.618;2023-11-21T06:57:58;92967.16;;;6.84;74.25
82416;BME280;72058;47.782;10.618;2023-11-21T07:00:25;92975.69;;;6.77;74.33
82416;BME280;72058;47.782;10.618;2023-11-21T07:02:50;92977.31;;;6.87;73.85
82416;BME280;72058;47.782;10.618;2023-11-21T07:05:15;92972.91;;;6.91;73.64
82416;BME280;72058;47.782;10.618;2023-11-21T07:07:45;92973.81;;;6.86;73.98
82416;BME280;72058;47.782;10.618;2023-11-21T07:10:11;92973.72;;;6.92;73.83
82416;BME280;72058;47.782;10.618;2023-11-21T07:12:36;92984.78;;;6.81;73.99
82416;BME280;72058;47.782;10.618;2023-11-21T07:15:03;92977.97;;;6.84;74.22
82416;BME280;72058;47.782;10.618;2023-11-21T07:17:30;92978.75;;;6.84;74.26
82416;BME280;72058;47.782;10.618;2023-11-21T07:19:56;92975.66;;;7.00;73.88
82416;BME280;72058;47.782;10.618;2023-11-21T07:22:22;92976.41;;;6.92;74.16
82416;BME280;72058;47.782;10.618;2023-11-21T07:24:50;92991.97;;;6.86;74.94
82416;BME280;72058;47.782;10.618;2023-11-21T07:27:18;92990.38;;;6.85;74.72
82416;BME280;72058;47.782;10.618;2023-11-21T07:29:44;92990.59;;;6.97;74.22
82416;BME280;72058;47.782;10.618;2023-11-21T07:32:10;92992.25;;;7.07;74.05
82416;BME280;72058;47.782;10.618;2023-11-21T07:34:36;92999.81;;;6.96;74.31
82416;BME280;72058;47.782;10.618;2023-11-21T07:37:02;93002.66;;;6.91;75.15
82416;BME280;72058;47.782;10.618;2023-11-21T07:39:28;93001.72;;;6.96;74.58
82416;BME280;72058;47.782;10.618;2023-11-21T07:41:53;93002.03;;;6.94;74.82
82416;BME280;72058;47.782;10.618;2023-11-21T07:44:19;93002.34;;;6.93;74.56
82416;BME280;72058;47.782;10.618;2023-11-21T07:46:45;92998.59;;;7.02;74.50
82416;BME280;72058;47.782;10.618;2023-11-21T07:49:11;92993.13;;;6.94;75.33
82416;BME280;72058;47.782;10.618;2023-11-21T07:51:37;92992.19;;;6.98;75.46
82416;BME280;72058;47.782;10.618;2023-11-21T07:54:02;92990.91;;;6.96;75.97
82416;BME280;72058;47.782;10.618;2023-11-21T07:56:28;92993.13;;;6.94;75.58
82416;BME280;72058;47.782;10.618;2023-11-21T07:58:53;92983.28;;;6.98;75.47
82416;BME280;72058;47.782;10.618;2023-11-21T08:01:19;92984.88;;;6.99;75.06
82416;BME280;72058;47.782;10.618;2023-11-21T08:03:44;92988.25;;;7.04;74.76
82416;BME280;72058;47.782;10.618;2023-11-21T08:06:09;92986.53;;;7.08;74.90
82416;BME280;72058;47.782;10.618;2023-11-21T08:08:35;92996.44;;;6.91;75.63
82416;BME280;72058;47.782;10.618;2023-11-21T08:11:00;93000.44;;;6.93;75.91
82416;BME280;72058;47.782;10.618;2023-11-21T08:13:27;92998.75;;;7.06;75.44
82416;BME280;72058;47.782;10.618;2023-11-21T08:15:57;93003.06;;;7.07;75.10
82416;BME280;72058;47.782;10.618;2023-11-21T08:18:26;93003.72;;;7.12;75.23
82416;BME280;72058;47.782;10.618;2023-11-21T08:20:52;93012.94;;;7.11;75.86
82416;BME280;72058;47.782;10.618;2023-11-21T08:23:17;93010.63;;;7.18;75.03
82416;BME280;72058;47.782;10.618;2023-11-21T08:25:46;93006.56;;;7.07;75.64
82416;BME280;72058;47.782;10.618;2023-11-21T08:28:12;93011.88;;;7.21;74.81
82416;BME280;72058;47.782;10.618;2023-11-21T08:30:39;93013.75;;;7.12;75.43
82416;BME280;72058;47.782;10.618;2023-11-21T08:33:06;93017.81;;;7.01;75.89
82416;BME280;72058;47.782;10.618;2023-11-21T08:35:34;93013.53;;;7.00;76.46
82416;BME280;72058;47.782;10.618;2023-11-21T08:38:00;93016.53;;;6.98;76.71
82416;BME280;72058;47.782;10.618;2023-11-21T08:40:25;93012.03;;;7.16;76.01
82416;BME280;72058;47.782;10.618;2023-11-21T08:42:51;93009.47;;;7.11;76.08
82416;BME280;72058;47.782;10.618;2023-11-21T08:45:18;93003.25;;;7.10;76.35
82416;BME280;72058;47.782;10.618;2023-11-21T08:47:44;93015.63;;;7.11;76.52
82416;BME280;72058;47.782;10.618;2023-11-21T08:50:10;93004.75;;;7.25;75.88
82416;BME280;72058;47.782;10.618;2023-11-21T08:52:37;93005.56;;;7.26;75.92
82416;BME280;72058;47.782;10.618;2023-11-21T08:55:04;93008.75;;;7.28;75.80
82416;BME280;72058;47.782;10.618;2023-11-21T08:57:34;93007.66;;;7.37;75.73
82416;BME280;72058;47.782;10.618;2023-11-21T09:00:00;93008.03;;;7.44;74.83
82416;BME280;72058;47.782;10.618;2023-11-21T09:02:26;93013.53;;;7.31;75.59
82416;BME280;72058;47.782;10.618;2023-11-21T09:04:52;93012.91;;;7.34;75.48
82416;BME280;72058;47.782;10.618;2023-11-21T09:07:18;93022.28;;;7.28;75.94
82416;BME280;72058;47.782;10.618;2023-11-21T09:09:46;93029.00;;;7.39;75.71
82416;BME280;72058;47.782;10.618;2023-11-21T09:12:12;93021.53;;;7.36;74.81
82416;BME280;72058;47.782;10.618;2023-11-21T09:14:38;93022.13;;;7.33;75.31
82416;BME280;72058;47.782;10.618;2023-11-21T09:17:04;93024.09;;;7.41;74.68
82416;BME280;72058;47.782;10.618;2023-11-21T09:19:38;93026.03;;;7.49;74.75
82416;BME280;72058;47.782;10.618;2023-11-21T09:22:04;93030.47;;;7.45;75.42
82416;BME280;72058;47.782;10.618;2023-11-21T09:24:33;93035.00;;;7.58;75.10
82416;BME280;72058;47.782;10.618;2023-11-21T09:26:59;93029.28;;;7.59;74.79
82416;BME280;72058;47.782;10.618;2023-11-21T09:29:27;93034.88;;;7.72;74.63
82416;BME280;72058;47.782;10.618;2023-11-21T09:31:54;93038.66;;;7.62;74.91
82416;BME280;72058;47.782;10.618;2023-11-21T09:34:20;93038.84;;;7.66;74.58
82416;BME280;72058;47.782;10.618;2023-11-21T09:36:46;93042.19;;;7.71;73.28
82416;BME280;72058;47.782;10.618;2023-11-21T09:39:11;93043.75;;;7.63;74.44
82416;BME280;72058;47.782;10.618;2023-11-21T09:42:04;93045.72;;;7.72;74.91
82416;BME280;72058;47.782;10.618;2023-11-21T09:44:48;93041.75;;;7.69;75.28
82416;BME280;72058;47.782;10.618;2023-11-21T09:47:17;93040.47;;;7.75;75.02
82416;BME280;72058;47.782;10.618;2023-11-21T09:49:48;93042.56;;;7.78;75.42
82416;BME280;72058;47.782;10.618;2023-11-21T09:52:27;93046.22;;;7.82;75.29
82416;BME280;72058;47.782;10.618;2023-11-21T09:54:54;93044.13;;;7.79;76.01
82416;BME280;72058;47.782;10.618;2023-11-21T09:57:23;93037.97;;;7.87;75.81
82416;BME280;72058;47.782;10.618;2023-11-21T09:59:52;93038.72;;;7.79;76.45
82416;BME280;72058;47.782;10.618;2023-11-21T10:02:27;93034.25;;;7.75;76.56
82416;BME280;72058;47.782;10.618;2023-11-21T10:04:55;93037.97;;;7.87;76.14
82416;BME280;72058;47.782;10.618;2023-11-21T10:07:22;93033.50;;;7.83;76.57
82416;BME280;72058;47.782;10.618;2023-11-21T10:09:47;93029.19;;;7.82;76.47
82416;BME280;72058;47.782;10.618;2023-11-21T10:12:15;93035.88;;;7.76;76.34
82416;BME280;72058;47.782;10.618;2023-11-21T10:14:42;93040.63;;;7.79;76.45
82416;BME280;72058;47.782;10.618;2023-11-21T10:17:10;93032.38;;;7.84;76.24
82416;BME280;72058;47.782;10.618;2023-11-21T10:19:38;93034.94;;;7.89;76.53
82416;BME280;72058;47.782;10.618;2023-11-21T10:22:04;93034.28;;;7.83;76.48
82416;BME280;72058;47.782;10.618;2023-11-21T10:24:29;93027.94;;;7.88;76.85
82416;BME280;72058;47.782;10.618;2023-11-21T10:26:54;93034.00;;;7.85;77.29
82416;BME280;72058;47.782;10.618;2023-11-21T10:29:20;93033.03;;;7.89;76.30
82416;BME280;72058;47.782;10.618;2023-11-21T10:31:49;93036.06;;;7.96;75.91
82416;BME280;72058;47.782;10.618;2023-11-21T10:34:19;93030.50;;;7.93;75.49
82416;BME280;72058;47.782;10.618;2023-11-21T10:36:45;93036.88;;;7.97;75.41
82416;BME280;72058;47.782;10.618;2023-11-21T10:39:18;93029.06;;;7.95;75.92
82416;BME280;72058;47.782;10.618;2023-11-21T10:41:45;93027.94;;;7.96;75.95
82416;BME280;72058;47.782;10.618;2023-11-21T10:44:11;93025.56;;;7.86;75.97
82416;BME280;72058;47.782;10.618;2023-11-21T10:46:39;93028.09;;;7.91;75.88
82416;BME280;72058;47.782;10.618;2023-11-21T10:49:05;93029.53;;;7.89;75.84
82416;BME280;72058;47.782;10.618;2023-11-21T10:51:31;93037.69;;;7.97;76.54
82416;BME280;72058;47.782;10.618;2023-11-21T10:53:57;93027.16;;;7.96;76.46
82416;BME280;72058;47.782;10.618;2023-11-21T10:56:25;93025.25;;;7.96;76.39
82416;BME280;72058;47.782;10.618;2023-11-21T10:58:52;93025.72;;;7.98;76.16
82416;BME280;72058;47.782;10.618;2023-11-21T11:01:19;93016.81;;;7.98;76.92
82416;BME280;72058;47.782;10.618;2023-11-21T11:03:46;93019.53;;;7.98;76.22
82416;BME280;72058;47.782;10.618;2023-11-21T11:06:13;93017.16;;;8.05;76.53
82416;BME280;72058;47.782;10.618;2023-11-21T11:08:39;93021.31;;;8.11;74.77
82416;BME280;72058;47.782;10.618;2023-11-21T11:11:09;93013.00;;;7.99;75.65
82416;BME280;72058;47.782;10.618;2023-11-21T11:13:35;93016.03;;;8.06;75.47
82416;BME280;72058;47.782;10.618;2023-11-21T11:16:03;93011.09;;;8.08;75.00
82416;BME280;72058;47.782;10.618;2023-11-21T11:18:32;93018.91;;;8.10;74.31
82416;BME280;72058;47.782;10.618;2023-11-21T11:21:15;93020.53;;;8.19;74.08
82416;BME280;72058;47.782;10.618;2023-11-21T11:26:46;93013.97;;;8.20;73.23
82416;BME280;72058;47.782;10.618;2023-11-21T11:34:30;93015.75;;;8.25;74.59
82416;BME280;72058;47.782;10.618;2023-11-21T11:41:56;93007.19;;;8.31;74.35
82416;BME280;72058;47.782;10.618;2023-11-21T11:52:40;93022.47;;;8.27;73.49
82416;BME280;72058;47.782;10.618;2023-11-21T11:55:07;93020.59;;;8.36;72.88
82416;BME280;72058;47.782;10.618;2023-11-21T11:57:35;93011.50;;;8.41;72.94
82416;BME280;72058;47.782;10.618;2023-11-21T12:02:35;93014.22;;;8.32;73.26
82416;BME280;72058;47.782;10.618;2023-11-21T12:05:08;93015.63;;;8.38;73.18
82416;BME280;72058;47.782;10.618;2023-11-21T12:07:56;93013.41;;;8.41;73.55
82416;BME280;72058;47.782;10.618;2023-11-21T12:12:51;93019.41;;;8.29;73.66
82416;BME280;72058;47.782;10.618;2023-11-21T12:15:21;93017.84;;;8.28;74.03
82416;BME280;72058;47.782;10.618;2023-11-21T12:17:47;93026.16;;;8.31;73.35
82416;BME280;72058;47.782;10.618;2023-11-21T12:20:15;93026.66;;;8.42;73.05
82416;BME280;72058;47.782;10.618;2023-11-21T12:22:50;93024.69;;;8.25;73.88
82416;BME280;72058;47.782;10.618;2023-11-21T12:27:43;93021.66;;;8.27;73.83
82416;BME280;72058;47.782;10.618;2023-11-21T12:30:11;93017.72;;;8.33;73.72
82416;BME280;72058;47.782;10.618;2023-11-21T12:32:39;93024.72;;;8.34;73.62
82416;BME280;72058;47.782;10.618;2023-11-21T12:35:07;93027.28;;;8.39;73.82
82416;BME280;72058;47.782;10.618;2023-11-21T12:37:32;93020.13;;;8.34;73.62
82416;BME280;72058;47.782;10.618;2023-11-21T12:39:58;93023.25;;;8.28;74.28
82416;BME280;72058;47.782;10.618;2023-11-21T12:42:23;93020.56;;;8.28;74.32
82416;BME280;72058;47.782;10.618;2023-11-21T12:45:07;93017.84;;;8.28;73.76
82416;BME280;72058;47.782;10.618;2023-11-21T12:47:34;93029.47;;;8.28;73.96
82416;BME280;72058;47.782;10.618;2023-11-21T12:50:02;93026.94;;;8.32;73.03
82416;BME280;72058;47.782;10.618;2023-11-21T12:52:28;93031.09;;;8.38;72.51
82416;BME280;72058;47.782;10.618;2023-11-21T12:54:53;93033.50;;;8.48;71.80
82416;BME280;72058;47.782;10.618;2023-11-21T12:57:19;93036.22;;;8.48;71.67
82416;BME280;72058;47.782;10.618;2023-11-21T12:59:45;93037.81;;;8.58;71.13
82416;BME280;72058;47.782;10.618;2023-11-21T13:02:12;93045.31;;;8.52;71.27
82416;BME280;72058;47.782;10.618;2023-11-21T13:04:40;93033.50;;;8.48;71.94
82416;BME280;72058;47.782;10.618;2023-11-21T13:07:06;93035.44;;;8.56;70.98
82416;BME280;72058;47.782;10.618;2023-11-21T13:09:39;93038.94;;;8.48;71.52
82416;BME280;72058;47.782;10.618;2023-11-21T13:12:06;93044.19;;;8.36;69.18
82416;BME280;72058;47.782;10.618;2023-11-21T13:14:34;93036.31;;;8.26;68.34
82416;BME280;72058;47.782;10.618;2023-11-21T13:16:59;93042.22;;;8.28;67.84
82416;BME280;72058;47.782;10.618;2023-11-21T13:19:24;93044.59;;;8.21;68.33
82416;BME280;72058;47.782;10.618;2023-11-21T13:21:52;93044.44;;;8.17;69.44
82416;BME280;72058;47.782;10.618;2023-11-21T13:24:18;93052.69;;;8.12;70.12
82416;BME280;72058;47.782;10.618;2023-11-21T13:26:43;93051.56;;;8.05;70.51